Погода Беднажувкана 2 недели

Люблинское воеводство, Польша

23 мая-05 июня
  • 23мая
    Сегодня
    +14°
    +26°
    Небольшая облачность
    ВремяПогодаТемператураВлажностьДавлениеВетер, м/сВероятность осадков
    02:00Небольшая облачность+13°C81 %745 мм2.0 м/с13 %
    05:00Пасмурно, сплошная облачность+13°C86 %746 мм2.0 м/с8 %
    08:00Облачно с прояснениями+19°C74 %747 мм2.5 м/с6 %
    11:00Практически безоблачно+24°C41 %748 мм5.6 м/с5 %
    14:00Небольшая облачность+25°C33 %747 мм5.8 м/с6 %
    17:00Облачно с прояснениями+25°C36 %747 мм3.8 м/с7 %
    20:00Небольшая облачность+21°C60 %748 мм2.0 м/с2 %
    23:00Ясно и безоблачно+17°C67 %749 мм2.6 м/с2 %
  • 24мая
    Пятница
    +14°
    +28°
    Небольшая облачность
    ВремяПогодаТемператураВлажностьДавлениеВетер, м/сВероятность осадков
    02:00Практически безоблачно+16°C61 %750 мм3.9 м/с2 %
    05:00Небольшая облачность+14°C73 %750 мм3.3 м/с2 %
    08:00Ясно и безоблачно+19°C62 %751 мм3.6 м/с2 %
    11:00Ясно и безоблачно+25°C47 %751 мм3.7 м/с2 %
    14:00Небольшая облачность+28°C30 %751 мм4.8 м/с4 %
    17:00Небольшая облачность+26°C42 %751 мм5.1 м/с17 %
    20:00Практически безоблачно+22°C48 %751 мм3.5 м/с5 %
    23:00Ясно и безоблачно+18°C64 %751 мм4.1 м/с2 %
  • 25мая
    Суббота
    +13°
    +28°
    Небольшая облачность
    ВремяПогодаТемператураВлажностьДавлениеВетер, м/сВероятность осадков
    02:00Практически безоблачно+15°C77 %752 мм3.2 м/с2 %
    05:00Облачно с прояснениями+14°C84 %751 мм3.0 м/с2 %
    08:00Небольшая облачность+20°C66 %752 мм3.1 м/с2 %
    11:00Практически безоблачно+25°C47 %752 мм3.1 м/с8 %
    14:00Небольшая облачность+27°C34 %751 мм3.5 м/с27 %
    17:00Небольшая облачность+24°C56 %751 мм2.6 м/с47 %
    20:00Ясно и безоблачно+21°C63 %750 мм1.9 м/с17 %
    23:00Ясно и безоблачно+17°C65 %751 мм2.6 м/с4 %
  • 26мая
    Воскресенье
    +12°
    +27°
    Облачно с прояснениями
    ВремяПогодаТемператураВлажностьДавлениеВетер, м/сВероятность осадков
    02:00Ясно и безоблачно+15°C65 %751 мм3.0 м/с3 %
    05:00Ясно и безоблачно+13°C74 %751 мм2.4 м/с4 %
    08:00Ясно и безоблачно+19°C63 %752 мм2.2 м/с7 %
    11:00Практически безоблачно+25°C40 %753 мм3.3 м/с10 %
    14:00Облачно с прояснениями+26°C33 %752 мм3.4 м/с16 %
    17:00Облачно с прояснениями+23°C46 %752 мм4.3 м/с29 %
    20:00Облачно с прояснениями+22°C46 %752 мм1.3 м/с18 %
    23:00Ясно и безоблачно+17°C43 %753 мм4.0 м/с3 %
  • 27мая
    Понедельник
    +12°
    +27°
    Практически безоблачно
    ВремяПогодаТемператураВлажностьДавлениеВетер, м/сВероятность осадков
    02:00Ясно и безоблачно+15°C50 %753 мм3.2 м/с2 %
    05:00Ясно и безоблачно+12°C54 %754 мм2.4 м/с2 %
    08:00Ясно и безоблачно+19°C50 %754 мм2.2 м/с2 %
    11:00Небольшая облачность+25°C30 %754 мм2.8 м/с3 %
    14:00Практически безоблачно+26°C26 %753 мм3.7 м/с6 %
    17:00Облачно с прояснениями+25°C29 %752 мм4.2 м/с8 %
    20:00Небольшая облачность+20°C44 %752 мм2.9 м/с3 %
    23:00Облачно с прояснениями+16°C50 %752 мм3.4 м/с2 %
Мы используем cookies
Соглашаюсь